Time;durP1;ratioP1;P1;durP2;ratioP2;P2;SDS_P1;SDS_P2;PMS_P1;PMS_P2;Temp;Humidity;BMP_temperature;BMP_pressure;BME280_temperature;BME280_humidity;BME280_pressure;Samples;Min_cycle;Max_cycle;Signal;HPM_P1;HPM_P2
2023/01/12 00:04:59;;;;;;;6.55;0.60;;;;;;;;;;10311140;28;20453;-82
2023/01/12 00:10:00;;;;;;;6.88;0.50;;;;;;;;;;10309238;28;20282;-80
2023/01/12 00:15:01;;;;;;;1.58;0.60;;;;;;;;;;10289785;28;20259;-82
2023/01/12 00:20:03;;;;;;;1.73;0.30;;;;;;;;;;10305236;28;20237;-80
2023/01/12 00:25:04;;;;;;;0.88;0.73;;;;;;;;;;10304729;28;20180;-81
2023/01/12 00:30:06;;;;;;;5.35;0.80;;;;;;;;;;10305976;28;20568;-78
2023/01/12 00:35:07;;;;;;;1.02;0.40;;;;;;;;;;10305298;28;20180;-81
2023/01/12 00:40:09;;;;;;;4.38;1.00;;;;;;;;;;10304869;28;20185;-81
2023/01/12 00:45:23;;;;;;;1.88;0.50;;;;;;;;;;10300302;28;20701;-82
2023/01/12 00:50:24;;;;;;;1.38;0.40;;;;;;;;;;10290947;28;20233;-82
2023/01/12 00:55:25;;;;;;;4.80;0.73;;;;;;;;;;10302576;28;20226;-82
2023/01/12 01:00:26;;;;;;;1.30;0.63;;;;;;;;;;10302147;28;20701;-79
2023/01/12 01:05:27;;;;;;;1.80;0.52;;;;;;;;;;10301184;28;20306;-79
2023/01/12 01:10:28;;;;;;;4.13;1.23;;;;;;;;;;10284428;28;20596;-78
2023/01/12 01:15:29;;;;;;;0.95;0.63;;;;;;;;;;10298412;28;20221;-79
2023/01/12 01:20:35;;;;;;;2.50;0.75;;;;;;;;;;10302848;28;20225;-81
2023/01/12 01:25:36;;;;;;;0.60;0.30;;;;;;;;;;10300580;28;20713;-82
2023/01/12 01:30:38;;;;;;;4.75;0.47;;;;;;;;;;10298342;28;20221;-80
2023/01/12 01:35:39;;;;;;;0.68;0.40;;;;;;;;;;10302052;28;20232;-79
2023/01/12 01:40:42;;;;;;;2.50;0.40;;;;;;;;;;10299909;28;20209;-79
2023/01/12 01:45:45;;;;;;;2.45;0.80;;;;;;;;;;10280109;28;20217;-79
2023/01/12 01:50:49;;;;;;;4.32;0.47;;;;;;;;;;10281737;28;20323;-80
2023/01/12 01:55:52;;;;;;;5.43;0.60;;;;;;;;;;10296832;28;20406;-80
2023/01/12 02:00:53;;;;;;;1.65;0.40;;;;;;;;;;10286503;28;20220;-80
2023/01/12 02:05:55;;;;;;;1.40;0.50;;;;;;;;;;10293187;28;20225;-82
2023/01/12 02:10:58;;;;;;;2.25;0.68;;;;;;;;;;10283233;28;20245;-80
2023/01/12 02:16:20;;;;;;;1.02;0.40;;;;;;;;;;10294211;28;20221;-80
2023/01/12 02:21:24;;;;;;;2.95;0.40;;;;;;;;;;10297986;28;20335;-83
2023/01/12 02:26:44;;;;;;;1.95;0.35;;;;;;;;;;10297868;28;20217;-80
2023/01/12 02:32:02;;;;;;;1.42;0.30;;;;;;;;;;10300097;28;20803;-80
2023/01/12 02:37:18;;;;;;;3.38;0.40;;;;;;;;;;10280481;28;20221;-79
2023/01/12 02:42:41;;;;;;;2.45;0.40;;;;;;;;;;10291600;28;20724;-83
2023/01/12 02:48:06;;;;;;;1.95;0.30;;;;;;;;;;10294228;28;20681;-80
2023/01/12 02:53:10;;;;;;;1.13;0.40;;;;;;;;;;10299238;28;20271;-81
2023/01/12 02:58:13;;;;;;;2.63;0.98;;;;;;;;;;10288340;28;20201;-79
2023/01/12 03:03:14;;;;;;;1.48;1.13;;;;;;;;;;10300380;28;20224;-81
2023/01/12 03:08:20;;;;;;;4.72;0.50;;;;;;;;;;10298051;28;20597;-83
2023/01/12 03:13:23;;;;;;;0.32;0.30;;;;;;;;;;10295685;28;20212;-81
2023/01/12 03:18:33;;;;;;;3.25;0.57;;;;;;;;;;10295331;28;20223;-82
2023/01/12 03:23:49;;;;;;;0.88;0.35;;;;;;;;;;10293307;28;21026;-78
2023/01/12 03:28:52;;;;;;;1.65;0.52;;;;;;;;;;10299448;28;20259;-80
2023/01/12 03:33:54;;;;;;;4.15;0.38;;;;;;;;;;10300763;28;20213;-79
2023/01/12 03:39:01;;;;;;;1.08;0.40;;;;;;;;;;10296585;28;20227;-79
2023/01/12 03:44:04;;;;;;;2.00;0.50;;;;;;;;;;10311185;28;20232;-83
2023/01/12 03:49:16;;;;;;;2.15;0.55;;;;;;;;;;10308865;28;20213;-81
2023/01/12 03:54:18;;;;;;;2.65;0.50;;;;;;;;;;10309583;28;20343;-81
2023/01/12 03:59:19;;;;;;;1.35;0.28;;;;;;;;;;10306053;28;20312;-79
2023/01/12 04:04:21;;;;;;;1.02;0.35;;;;;;;;;;10303638;28;20426;-82
2023/01/12 04:09:24;;;;;;;2.00;0.60;;;;;;;;;;10312112;28;20216;-80
2023/01/12 04:14:25;;;;;;;2.33;0.40;;;;;;;;;;10312750;28;20238;-81
2023/01/12 04:19:26;;;;;;;0.95;0.30;;;;;;;;;;10315880;28;20224;-80
2023/01/12 04:24:27;;;;;;;4.38;0.43;;;;;;;;;;10305966;28;20237;-81
2023/01/12 04:29:28;;;;;;;1.08;0.30;;;;;;;;;;10318250;28;20228;-80
2023/01/12 04:34:29;;;;;;;3.83;0.28;;;;;;;;;;10313807;28;20208;-83
2023/01/12 04:39:30;;;;;;;0.70;0.25;;;;;;;;;;10313658;28;20701;-81
2023/01/12 04:44:33;;;;;;;1.85;0.45;;;;;;;;;;10321029;28;20316;-81
2023/01/12 04:49:34;;;;;;;1.42;0.32;;;;;;;;;;10315178;28;20241;-83
2023/01/12 04:54:35;;;;;;;3.22;0.30;;;;;;;;;;10307287;28;20347;-81
2023/01/12 04:59:36;;;;;;;3.08;0.40;;;;;;;;;;10308213;28;20876;-83
2023/01/12 05:04:37;;;;;;;2.60;0.50;;;;;;;;;;10306236;28;20278;-83
2023/01/12 05:14:58;;;;;;;0.70;0.30;;;;;;;;;;10304267;28;20232;-82
2023/01/12 05:19:59;;;;;;;0.30;0.20;;;;;;;;;;10304418;28;20228;-79
2023/01/12 05:25:00;;;;;;;0.65;0.40;;;;;;;;;;10295953;28;20213;-81
2023/01/12 05:30:02;;;;;;;0.82;0.22;;;;;;;;;;10303090;28;20256;-78
2023/01/12 05:35:04;;;;;;;0.70;0.40;;;;;;;;;;10292529;28;20217;-79
2023/01/12 05:40:05;;;;;;;4.85;0.57;;;;;;;;;;10297708;28;20261;-82
2023/01/12 05:45:07;;;;;;;0.40;0.40;;;;;;;;;;10301370;28;20193;-82
2023/01/12 05:50:08;;;;;;;1.23;0.20;;;;;;;;;;10275699;28;20584;-84
2023/01/12 05:55:09;;;;;;;0.43;0.20;;;;;;;;;;10259982;28;20762;-82
2023/01/12 06:00:11;;;;;;;0.73;0.17;;;;;;;;;;10299751;28;20281;-80
2023/01/12 06:05:13;;;;;;;0.20;0.20;;;;;;;;;;10297151;28;20189;-79
2023/01/12 06:10:14;;;;;;;1.85;0.30;;;;;;;;;;10298190;28;20256;-83
2023/01/12 06:15:15;;;;;;;1.48;0.57;;;;;;;;;;10296702;28;20612;-80
2023/01/12 06:20:16;;;;;;;3.20;0.40;;;;;;;;;;10296680;28;20232;-85
2023/01/12 06:25:17;;;;;;;0.52;0.20;;;;;;;;;;10292375;28;20556;-80
2023/01/12 06:30:18;;;;;;;1.05;0.32;;;;;;;;;;10288668;28;20228;-83
2023/01/12 06:35:19;;;;;;;2.60;0.32;;;;;;;;;;10299067;28;20212;-80
2023/01/12 06:40:20;;;;;;;0.50;0.30;;;;;;;;;;10298782;28;20569;-82
2023/01/12 06:45:21;;;;;;;1.17;0.40;;;;;;;;;;10301031;28;20548;-81
2023/01/12 06:50:22;;;;;;;0.93;0.30;;;;;;;;;;10294627;28;20248;-81
2023/01/12 06:55:23;;;;;;;0.20;0.20;;;;;;;;;;10293765;28;20780;-82
2023/01/12 07:00:24;;;;;;;0.55;0.30;;;;;;;;;;10295394;28;20316;-83
2023/01/12 07:05:25;;;;;;;0.20;0.20;;;;;;;;;;10297569;28;20217;-81
2023/01/12 07:10:27;;;;;;;1.65;0.30;;;;;;;;;;10297934;28;20304;-81
2023/01/12 07:15:28;;;;;;;0.38;0.38;;;;;;;;;;10295456;28;20300;-83
2023/01/12 07:20:29;;;;;;;1.48;0.20;;;;;;;;;;10293840;28;20229;-79
2023/01/12 07:25:30;;;;;;;1.30;0.22;;;;;;;;;;10293617;28;20216;-81
2023/01/12 07:30:31;;;;;;;1.15;0.30;;;;;;;;;;10287497;28;20540;-81
2023/01/12 07:35:32;;;;;;;4.07;0.30;;;;;;;;;;10300048;28;20592;-84
2023/01/12 07:40:33;;;;;;;0.32;0.20;;;;;;;;;;10283602;28;20209;-82
2023/01/12 07:45:35;;;;;;;0.38;0.38;;;;;;;;;;10299516;28;20662;-81
2023/01/12 07:50:36;;;;;;;0.47;0.20;;;;;;;;;;10299860;28;20229;-81
2023/01/12 07:55:38;;;;;;;0.40;0.40;;;;;;;;;;10295363;28;20217;-82
2023/01/12 08:00:39;;;;;;;1.55;0.45;;;;;;;;;;10301844;28;20283;-84
2023/01/12 08:05:40;;;;;;;1.08;0.30;;;;;;;;;;10298248;28;20308;-82
2023/01/12 08:10:42;;;;;;;1.48;0.30;;;;;;;;;;10301429;28;20251;-82
2023/01/12 08:15:46;;;;;;;0.85;0.20;;;;;;;;;;10301373;28;20221;-84
2023/01/12 08:20:47;;;;;;;0.28;0.17;;;;;;;;;;10289586;28;20222;-84
2023/01/12 08:25:55;;;;;;;0.63;0.40;;;;;;;;;;10285388;28;20244;-80
2023/01/12 08:30:56;;;;;;;1.88;0.55;;;;;;;;;;10307421;28;20229;-79
2023/01/12 08:35:57;;;;;;;0.35;0.32;;;;;;;;;;10307245;28;20618;-78
2023/01/12 08:46:18;;;;;;;1.00;0.35;;;;;;;;;;10303667;28;20744;-81
2023/01/12 08:51:19;;;;;;;1.23;0.35;;;;;;;;;;10307827;28;20220;-79
2023/01/12 08:56:20;;;;;;;0.73;0.50;;;;;;;;;;10302891;28;20221;-81
2023/01/12 09:01:22;;;;;;;1.85;0.30;;;;;;;;;;10306236;28;20299;-81
2023/01/12 09:06:24;;;;;;;1.25;0.25;;;;;;;;;;10305715;28;20209;-81
2023/01/12 09:11:26;;;;;;;1.85;0.50;;;;;;;;;;10300882;28;20242;-83
2023/01/12 09:16:28;;;;;;;0.20;0.13;;;;;;;;;;10288935;28;20294;-82
2023/01/12 09:21:30;;;;;;;0.65;0.22;;;;;;;;;;10306185;28;20256;-81
2023/01/12 09:26:32;;;;;;;0.63;0.35;;;;;;;;;;10310585;28;20221;-83
2023/01/12 09:31:33;;;;;;;0.80;0.20;;;;;;;;;;10308515;28;20721;-83
2023/01/12 09:36:35;;;;;;;2.13;0.22;;;;;;;;;;10311703;28;20219;-80
2023/01/12 09:46:59;;;;;;;0.25;0.20;;;;;;;;;;10289523;28;20731;-79
2023/01/12 09:52:08;;;;;;;0.13;0.13;;;;;;;;;;10303520;28;20221;-80
2023/01/12 09:57:10;;;;;;;0.80;0.15;;;;;;;;;;10298210;28;20223;-79
2023/01/12 10:02:12;;;;;;;0.17;0.10;;;;;;;;;;10298507;28;20260;-79
2023/01/12 10:07:17;;;;;;;0.80;0.10;;;;;;;;;;10297072;28;20319;-79
2023/01/12 10:12:22;;;;;;;2.08;0.22;;;;;;;;;;10299290;28;20225;-78
2023/01/12 10:17:29;;;;;;;1.25;0.03;;;;;;;;;;10299913;28;20240;-79
2023/01/12 10:22:38;;;;;;;0.10;0.10;;;;;;;;;;10296373;28;20224;-77
2023/01/12 10:27:41;;;;;;;0.15;0.10;;;;;;;;;;10286205;28;20247;-80
2023/01/12 10:32:42;;;;;;;0.50;0.10;;;;;;;;;;10297040;28;20228;-80
2023/01/12 10:37:44;;;;;;;0.10;0.10;;;;;;;;;;10296581;28;20229;-81
2023/01/12 10:48:16;;;;;;;0.10;0.00;;;;;;;;;;10296682;28;20213;-78
2023/01/12 10:53:19;;;;;;;0.10;0.10;;;;;;;;;;10300486;28;20229;-78
2023/01/12 10:58:25;;;;;;;0.03;0.03;;;;;;;;;;10299332;28;20221;-78
2023/01/12 11:03:31;;;;;;;0.90;0.10;;;;;;;;;;10298674;28;20217;-81
2023/01/12 11:08:32;;;;;;;0.15;0.15;;;;;;;;;;10283944;28;20219;-81
2023/01/12 11:13:36;;;;;;;0.10;0.10;;;;;;;;;;10299609;28;20206;-81
2023/01/12 11:18:40;;;;;;;1.35;0.10;;;;;;;;;;10283033;28;20247;-79
2023/01/12 11:23:46;;;;;;;0.75;0.15;;;;;;;;;;10299599;28;20217;-79
2023/01/12 11:28:50;;;;;;;0.45;0.20;;;;;;;;;;10299324;28;20239;-81
2023/01/12 11:34:10;;;;;;;1.00;0.15;;;;;;;;;;10297845;28;20224;-80
2023/01/12 11:39:15;;;;;;;0.52;0.10;;;;;;;;;;10294368;28;20225;-80
2023/01/12 11:44:32;;;;;;;0.10;0.10;;;;;;;;;;10295328;28;20217;-83
2023/01/12 11:49:41;;;;;;;0.00;0.00;;;;;;;;;;10297010;28;20244;-80
2023/01/12 11:54:43;;;;;;;0.00;0.00;;;;;;;;;;10302702;28;20211;-79
2023/01/12 11:59:56;;;;;;;0.08;0.08;;;;;;;;;;10286266;28;20622;-79
2023/01/12 12:05:09;;;;;;;0.00;0.00;;;;;;;;;;10301560;28;20220;-81
2023/01/12 12:10:11;;;;;;;0.35;0.05;;;;;;;;;;10287844;28;20229;-80
2023/01/12 12:15:21;;;;;;;2.75;0.10;;;;;;;;;;10304439;28;20531;-82
2023/01/12 12:20:37;;;;;;;0.25;0.10;;;;;;;;;;10302894;28;20225;-80
2023/01/12 12:25:51;;;;;;;0.10;0.10;;;;;;;;;;10304053;28;20216;-80
2023/01/12 12:31:02;;;;;;;1.30;0.10;;;;;;;;;;10287058;28;20221;-82
2023/01/12 12:36:18;;;;;;;0.95;0.10;;;;;;;;;;10298896;28;20221;-82
2023/01/12 12:47:00;;;;;;;0.45;0.00;;;;;;;;;;10302298;28;20216;-80
2023/01/12 12:52:01;;;;;;;0.00;0.00;;;;;;;;;;10306594;28;20606;-81
2023/01/12 12:57:03;;;;;;;0.00;0.00;;;;;;;;;;10286024;28;20737;-81
2023/01/12 13:02:24;;;;;;;0.10;0.10;;;;;;;;;;10307184;28;20311;-82
2023/01/12 13:07:26;;;;;;;0.10;0.10;;;;;;;;;;10284127;28;20229;-81
2023/01/12 13:12:35;;;;;;;1.48;0.10;;;;;;;;;;10299956;28;20227;-79
2023/01/12 13:17:36;;;;;;;0.10;0.10;;;;;;;;;;10287630;28;20216;-82
2023/01/12 13:22:47;;;;;;;0.45;0.10;;;;;;;;;;10297644;28;21195;-82
2023/01/12 13:27:49;;;;;;;0.20;0.20;;;;;;;;;;10300462;28;20286;-80
2023/01/12 13:32:52;;;;;;;0.10;0.10;;;;;;;;;;10270902;28;20561;-83
2023/01/12 13:38:12;;;;;;;0.30;0.10;;;;;;;;;;10293625;28;20217;-80
2023/01/12 13:43:21;;;;;;;0.55;0.10;;;;;;;;;;10299356;28;20221;-79
2023/01/12 13:48:23;;;;;;;0.28;0.10;;;;;;;;;;10293764;28;20217;-79
2023/01/12 13:53:25;;;;;;;0.10;0.10;;;;;;;;;;10295800;28;20652;-79
2023/01/12 13:58:27;;;;;;;0.70;0.30;;;;;;;;;;10300643;28;20217;-80
2023/01/12 14:03:43;;;;;;;0.30;0.30;;;;;;;;;;10295837;28;20205;-78
2023/01/12 14:08:50;;;;;;;0.63;0.20;;;;;;;;;;10282590;28;20224;-79
2023/01/12 14:13:54;;;;;;;0.13;0.13;;;;;;;;;;10297179;28;20213;-80
2023/01/12 14:18:56;;;;;;;0.40;0.40;;;;;;;;;;10295110;28;20934;-79
2023/01/12 14:24:15;;;;;;;0.13;0.13;;;;;;;;;;10297973;28;20804;-80
2023/01/12 14:29:16;;;;;;;0.25;0.25;;;;;;;;;;10294913;28;20274;-79
2023/01/12 14:34:21;;;;;;;0.85;0.28;;;;;;;;;;10296507;28;20228;-79
2023/01/12 14:39:25;;;;;;;0.20;0.20;;;;;;;;;;10294442;28;20709;-80
2023/01/12 14:49:46;;;;;;;0.30;0.15;;;;;;;;;;10293481;28;20937;-81
2023/01/12 14:54:47;;;;;;;0.10;0.10;;;;;;;;;;10294716;28;20222;-80
2023/01/12 14:59:48;;;;;;;0.00;0.00;;;;;;;;;;10294030;28;20792;-78
2023/01/12 15:04:52;;;;;;;0.30;0.10;;;;;;;;;;10297602;28;20231;-81
2023/01/12 15:09:56;;;;;;;0.10;0.10;;;;;;;;;;10292650;28;20257;-79
2023/01/12 15:15:15;;;;;;;0.68;0.00;;;;;;;;;;10294230;28;20217;-81
2023/01/12 15:25:40;;;;;;;0.10;0.10;;;;;;;;;;10286703;28;20248;-81
2023/01/12 15:30:41;;;;;;;0.10;0.10;;;;;;;;;;10287363;28;20228;-79
2023/01/12 15:35:44;;;;;;;0.35;0.35;;;;;;;;;;10294367;28;20768;-81
2023/01/12 15:40:46;;;;;;;0.30;0.30;;;;;;;;;;10283100;28;20331;-81
2023/01/12 15:45:48;;;;;;;0.55;0.10;;;;;;;;;;10287917;28;20244;-81
2023/01/12 15:50:49;;;;;;;0.08;0.08;;;;;;;;;;10283657;28;20265;-80
2023/01/12 15:55:50;;;;;;;0.10;0.10;;;;;;;;;;10287671;28;20272;-80
2023/01/12 16:00:51;;;;;;;0.85;0.10;;;;;;;;;;10282054;28;20213;-80
2023/01/12 16:05:52;;;;;;;0.10;0.10;;;;;;;;;;10290128;28;20251;-80
2023/01/12 16:11:08;;;;;;;0.70;0.00;;;;;;;;;;10288889;28;21072;-78
2023/01/12 16:16:13;;;;;;;0.10;0.10;;;;;;;;;;10285603;28;20212;-81
2023/01/12 16:21:15;;;;;;;0.10;0.10;;;;;;;;;;10285980;28;20236;-80
2023/01/12 16:26:16;;;;;;;0.45;0.10;;;;;;;;;;10276013;28;20217;-79
2023/01/12 16:31:18;;;;;;;0.10;0.10;;;;;;;;;;10277803;28;20292;-80
2023/01/12 16:36:19;;;;;;;0.10;0.10;;;;;;;;;;10288204;28;20228;-80
2023/01/12 16:41:23;;;;;;;0.30;0.30;;;;;;;;;;10291166;28;20232;-81
2023/01/12 16:46:24;;;;;;;0.30;0.30;;;;;;;;;;10300894;28;20563;-80
2023/01/12 16:51:25;;;;;;;0.65;0.20;;;;;;;;;;10297400;28;20316;-81
2023/01/12 16:56:26;;;;;;;0.40;0.40;;;;;;;;;;10294625;28;20223;-81
2023/01/12 17:01:27;;;;;;;0.10;0.10;;;;;;;;;;10296947;28;20728;-79
2023/01/12 17:06:28;;;;;;;0.20;0.20;;;;;;;;;;10280397;28;20310;-78
2023/01/12 17:11:30;;;;;;;0.40;0.40;;;;;;;;;;10294826;28;20220;-77
2023/01/12 17:16:31;;;;;;;0.10;0.10;;;;;;;;;;10298476;28;20229;-82
2023/01/12 17:21:32;;;;;;;0.10;0.10;;;;;;;;;;10296430;28;20300;-78
2023/01/12 17:26:33;;;;;;;0.20;0.20;;;;;;;;;;10294242;28;20308;-78
2023/01/12 17:31:34;;;;;;;0.10;0.10;;;;;;;;;;10288743;28;20322;-78
2023/01/12 17:36:35;;;;;;;2.58;0.20;;;;;;;;;;10295149;28;20205;-78
2023/01/12 17:46:56;;;;;;;0.10;0.10;;;;;;;;;;10303039;28;20212;-78
2023/01/12 17:51:57;;;;;;;0.10;0.10;;;;;;;;;;10298010;28;20220;-77
2023/01/12 17:56:59;;;;;;;0.10;0.10;;;;;;;;;;10285101;28;20644;-77
2023/01/12 18:02:00;;;;;;;0.10;0.10;;;;;;;;;;10285225;28;20225;-80
2023/01/12 18:07:01;;;;;;;0.28;0.28;;;;;;;;;;10295127;28;20217;-79
2023/01/12 18:12:02;;;;;;;0.10;0.10;;;;;;;;;;10284539;28;20605;-78
2023/01/12 18:17:03;;;;;;;0.50;0.50;;;;;;;;;;10296146;28;20216;-78
2023/01/12 18:22:05;;;;;;;0.60;0.60;;;;;;;;;;10293313;28;20614;-79
2023/01/12 18:27:07;;;;;;;0.38;0.38;;;;;;;;;;10294147;28;20213;-77
2023/01/12 18:32:08;;;;;;;0.20;0.20;;;;;;;;;;10295639;28;20443;-77
2023/01/12 18:37:09;;;;;;;0.10;0.10;;;;;;;;;;10273665;28;20217;-76
2023/01/12 18:58:09;;;;;;;0.10;0.10;;;;;;;;;;10291294;28;20813;-78
2023/01/12 19:03:11;;;;;;;0.10;0.10;;;;;;;;;;10290136;28;20217;-78
2023/01/12 19:18:52;;;;;;;0.10;0.10;;;;;;;;;;10283226;28;20219;-79
2023/01/12 19:29:13;;;;;;;0.15;0.15;;;;;;;;;;10294243;28;20740;-80
2023/01/12 19:34:14;;;;;;;1.95;0.17;;;;;;;;;;10295778;28;20780;-81
2023/01/12 19:39:24;;;;;;;0.10;0.10;;;;;;;;;;10278318;28;20405;-79
2023/01/12 19:44:25;;;;;;;0.20;0.20;;;;;;;;;;10284928;28;20228;-77
2023/01/12 19:49:26;;;;;;;0.20;0.20;;;;;;;;;;10280640;28;20215;-76
2023/01/12 19:54:28;;;;;;;0.10;0.10;;;;;;;;;;10276628;28;20668;-76
2023/01/12 19:59:29;;;;;;;0.03;0.03;;;;;;;;;;10264089;28;20359;-76
2023/01/12 20:04:30;;;;;;;0.10;0.10;;;;;;;;;;10284686;28;20213;-83
2023/01/12 20:09:31;;;;;;;0.10;0.10;;;;;;;;;;10281854;28;20735;-80
2023/01/12 20:14:32;;;;;;;0.00;0.00;;;;;;;;;;10284260;28;20224;-77
2023/01/12 20:19:34;;;;;;;0.10;0.10;;;;;;;;;;10290254;28;20225;-83
2023/01/12 20:24:35;;;;;;;0.10;0.10;;;;;;;;;;10289835;28;20455;-76
2023/01/12 20:29:36;;;;;;;0.10;0.10;;;;;;;;;;10294226;28;20218;-77
2023/01/12 20:34:37;;;;;;;0.10;0.10;;;;;;;;;;10294266;28;20209;-76
2023/01/12 20:39:38;;;;;;;0.00;0.00;;;;;;;;;;10290676;28;20213;-79
2023/01/12 20:44:39;;;;;;;0.08;0.08;;;;;;;;;;10282404;28;20225;-76
2023/01/12 20:49:40;;;;;;;6.95;0.10;;;;;;;;;;10292143;28;20240;-76
2023/01/12 20:54:41;;;;;;;0.00;0.00;;;;;;;;;;10296627;28;20696;-81
2023/01/12 20:59:43;;;;;;;0.00;0.00;;;;;;;;;;10312213;28;20221;-83
2023/01/12 21:04:44;;;;;;;0.00;0.00;;;;;;;;;;10312251;28;20794;-85
2023/01/12 21:09:45;;;;;;;0.00;0.00;;;;;;;;;;10299371;28;20218;-81
2023/01/12 21:14:46;;;;;;;0.00;0.00;;;;;;;;;;10306230;28;20552;-81
2023/01/12 21:19:47;;;;;;;0.10;0.10;;;;;;;;;;10313365;28;20457;-84
2023/01/12 21:24:49;;;;;;;0.00;0.00;;;;;;;;;;10310705;28;20228;-88
2023/01/12 21:29:50;;;;;;;0.00;0.00;;;;;;;;;;10315329;28;20217;-83
2023/01/12 21:34:51;;;;;;;2.65;0.10;;;;;;;;;;10313123;28;20214;-86
2023/01/12 21:39:52;;;;;;;0.00;0.00;;;;;;;;;;10314145;28;20331;-86
2023/01/12 21:44:53;;;;;;;0.00;0.00;;;;;;;;;;10284805;28;20208;-82
2023/01/12 21:49:55;;;;;;;0.00;0.00;;;;;;;;;;10307037;28;20229;-84
2023/01/12 21:54:57;;;;;;;0.00;0.00;;;;;;;;;;10298738;28;20210;-80
2023/01/12 21:59:58;;;;;;;0.00;0.00;;;;;;;;;;10314808;28;20320;-88
2023/01/12 22:04:59;;;;;;;0.00;0.00;;;;;;;;;;10311096;28;20219;-86
2023/01/12 22:10:18;;;;;;;0.00;0.00;;;;;;;;;;10318439;28;20235;-83
2023/01/12 22:15:20;;;;;;;0.00;0.00;;;;;;;;;;10298841;28;20268;-79
2023/01/12 22:20:23;;;;;;;0.08;0.08;;;;;;;;;;10316903;28;20226;-86
2023/01/12 22:25:24;;;;;;;0.00;0.00;;;;;;;;;;10316723;28;20235;-85
2023/01/12 22:30:26;;;;;;;0.00;0.00;;;;;;;;;;10315345;28;20274;-86
2023/01/12 22:35:27;;;;;;;0.08;0.08;;;;;;;;;;10318664;28;20217;-85
2023/01/12 22:40:29;;;;;;;0.00;0.00;;;;;;;;;;10316242;28;20229;-83
2023/01/12 22:45:33;;;;;;;0.38;0.00;;;;;;;;;;10315497;28;20288;-83
2023/01/12 22:50:34;;;;;;;0.00;0.00;;;;;;;;;;10314767;28;20225;-88
2023/01/12 22:55:39;;;;;;;0.00;0.00;;;;;;;;;;10317492;28;20209;-84
2023/01/12 23:00:40;;;;;;;0.00;0.00;;;;;;;;;;10312891;28;20305;-84
2023/01/12 23:05:48;;;;;;;0.00;0.00;;;;;;;;;;10304139;28;20216;-83
2023/01/12 23:10:50;;;;;;;0.98;0.00;;;;;;;;;;10303586;28;20228;-81
2023/01/12 23:15:54;;;;;;;0.00;0.00;;;;;;;;;;10317532;28;20217;-83
2023/01/12 23:21:02;;;;;;;0.00;0.00;;;;;;;;;;10299069;28;20286;-83
2023/01/12 23:26:04;;;;;;;0.00;0.00;;;;;;;;;;10315906;28;20217;-85
2023/01/12 23:31:10;;;;;;;0.00;0.00;;;;;;;;;;10296977;28;20227;-85
2023/01/12 23:36:15;;;;;;;0.10;0.10;;;;;;;;;;10314401;28;20217;-83
2023/01/12 23:41:17;;;;;;;0.00;0.00;;;;;;;;;;10294314;28;20599;-84
2023/01/12 23:46:20;;;;;;;0.43;0.00;;;;;;;;;;10297274;28;20217;-81
2023/01/12 23:51:22;;;;;;;0.00;0.00;;;;;;;;;;10321463;28;20243;-80
2023/01/12 23:56:23;;;;;;;0.10;0.10;;;;;;;;;;10322330;28;20278;-84
